Andover, OH

6:54 PM EDT on April 19, 2015 (GMT -0400)
Roaming Shores - Beach 2 Cove | | Change Station
CLOSE
Current Station
Personal Weather Station
Location: Roaming Shores, OH
Elevation: 883 ft
Nearby Weather Stations

Elev 883 ft 41.63 °N, 80.82 °W | Updated 26 seconds ago

Overcast
Overcast
62.6 °F
Feels Like 62.6 °F
N
7.8
Wind Variable Wind from ESE
Gusts 8.7 mph

Today
High -- | Low -- °F
--% Chance of Precip.
Yesterday
High -- | Low -- °F
Precip. -- in
6:36 AM 8:07 PM
New Moon, 2% visible
Pressure 29.81 in
Visibility 10.0 miles
Clouds Mostly Cloudy 11000 ft
Dew Point 50 °F
Humidity 64%
Rainfall 0.00 in
Snow Depth Not available.
UV 1 out of 12
Pollen 9.40 out of 12
Air Quality Not available.
Flu Activity Regional
METAR KHZY 192153Z AUTO 16014G30KT 10SM BKN110 21/03 A2980 RMK AO2 PK WND 16030/2144 SLP092 T02060028

More Conditions Fewer Conditions

Pressure 29.81 in
Visibility 10.0 miles
Clouds Mostly Cloudy 11000 ft
Dew Point 50 °F
Humidity 64%
Rainfall 0.00 in
Snow Depth Not available.
UV 1 out of 12
Pollen 9.40 out of 12
Air Quality Not available.
Flu Activity Regional
METAR KHZY 192153Z AUTO 16014G30KT 10SM BKN110 21/03 A2980 RMK AO2 PK WND 16030/2144 SLP092 T02060028

More Conditions Fewer Conditions

10-Day Weather Forecast

Almanac

Astronomy

Apr. 19, 2015 Rise Set
Actual Time
Civil Twilight
Nautical Twilight
Astronomical Twilight
Moon
Length of Visible Light
Length of Day
Tomorrow will be .
, % of the Moon is Illuminated

Today's Extremes

State Highs State Lows

Community

WunderPhotos

Upload Photos

1,815,009 photos uploaded!

WunderBlogs® & News

Nearby

Air Quality

  Air Quality AQ Index Pollutant
Not available.

Snow Depth

Station Depth Elevation

Earthquake Activity

City Distance Mag. Time & Date
Minimum magnitude displayed is 2.5.

Coastal Water Temperatures

Place Temperature

Stations

Nearby Weather Stations

Station Location Temp. Windchill Dew Point Humidity Wind Precip. Elev Updated Type